Terminal Aerodrome Forecast
Issued by NWS Wilmington, OH

Current Version | Previous Version | Graphics & Text | Print | Product List | Glossary On
Versions: 1 2 3 4 5 6 7 8 9 10 11 12 13 14 15 16 17 18 19 20 21 22 23 24 25 26 27
068
FTUS41 KILN 171456 AAA
TAFCVG
TAF AMD
KCVG 171456Z 1715/1818 22011KT P6SM SCT250
     FM180000 22006KT P6SM FEW250
     FM180900 20006KT P6SM BKN200
     FM181300 23008KT P6SM SCT060 BKN120=

USA.gov is the U.S. government's official web portal to all federal, state and local government web resources and services.